createdAt,value
2017-08-24T00:00:45.229Z,1006.31
2017-08-24T00:01:45.168Z,1006.29
2017-08-24T00:02:45.256Z,1006.33
2017-08-24T00:03:45.139Z,1006.29
2017-08-24T00:04:45.181Z,1006.27
2017-08-24T00:05:45.118Z,1006.31
2017-08-24T00:06:45.103Z,1006.29
2017-08-24T00:07:45.091Z,1006.24
2017-08-24T00:08:45.072Z,1006.2
2017-08-24T00:09:45.060Z,1006.26
2017-08-24T00:10:45.050Z,1006.26
2017-08-24T00:11:45.032Z,1006.23
2017-08-24T00:12:45.023Z,1006.29
2017-08-24T00:13:45.003Z,1006.26
2017-08-24T00:14:44.990Z,1006.27
2017-08-24T00:15:44.981Z,1006.3
2017-08-24T00:16:44.964Z,1006.3
2017-08-24T00:17:44.953Z,1006.29
2017-08-24T00:18:44.935Z,1006.25
2017-08-24T00:19:44.920Z,1006.27
2017-08-24T00:20:44.919Z,1006.21
2017-08-24T00:21:44.894Z,1006.25
2017-08-24T00:22:44.881Z,1006.26
2017-08-24T00:23:44.870Z,1006.28
2017-08-24T00:24:44.860Z,1006.29
2017-08-24T00:25:44.840Z,1006.33
2017-08-24T00:26:44.831Z,1006.3
2017-08-24T00:27:44.823Z,1006.31
2017-08-24T00:28:44.803Z,1006.33
2017-08-24T00:29:44.792Z,1006.35
2017-08-24T00:30:44.770Z,1006.32
2017-08-24T00:31:44.763Z,1006.33
2017-08-24T00:32:44.744Z,1006.34
2017-08-24T00:33:44.731Z,1006.34
2017-08-24T00:34:44.725Z,1006.35
2017-08-24T00:35:44.711Z,1006.32
2017-08-24T00:36:44.690Z,1006.3
2017-08-24T00:37:44.681Z,1006.35
2017-08-24T00:38:44.665Z,1006.32
2017-08-24T00:39:44.651Z,1006.36
2017-08-24T00:40:44.636Z,1006.35
2017-08-24T00:41:44.619Z,1006.4
2017-08-24T00:42:44.609Z,1006.42
2017-08-24T00:43:44.605Z,1006.42
2017-08-24T00:44:44.582Z,1006.43
2017-08-24T00:45:44.572Z,1006.32
2017-08-24T00:46:44.556Z,1006.33
2017-08-24T00:47:44.543Z,1006.25
2017-08-24T00:48:44.533Z,1006.31
2017-08-24T00:49:44.516Z,1006.29
2017-08-24T00:50:44.502Z,1006.34
2017-08-24T00:51:44.497Z,1006.34
2017-08-24T00:52:44.476Z,1006.36
2017-08-24T00:53:44.462Z,1006.34
2017-08-24T00:54:44.447Z,1006.36
2017-08-24T00:55:44.442Z,1006.33
2017-08-24T00:56:44.420Z,1006.28
2017-08-24T00:57:44.413Z,1006.26
2017-08-24T00:58:44.396Z,1006.3
2017-08-24T00:59:44.381Z,1006.3
2017-08-24T01:00:44.369Z,1006.27
2017-08-24T01:01:44.357Z,1006.24
2017-08-24T01:02:44.348Z,1006.22
2017-08-24T01:03:44.333Z,1006.24
2017-08-24T01:04:44.314Z,1006.25
2017-08-24T01:05:44.302Z,1006.28
2017-08-24T01:06:44.295Z,1006.25
2017-08-24T01:07:44.275Z,1006.24
2017-08-24T01:08:44.261Z,1006.28
2017-08-24T01:09:44.249Z,1006.28
2017-08-24T01:10:44.231Z,1006.36
2017-08-24T01:11:44.227Z,1006.38
2017-08-24T01:12:44.210Z,1006.28
2017-08-24T01:13:44.191Z,1006.35
2017-08-24T01:14:44.180Z,1006.28
2017-08-24T01:15:44.180Z,1006.31
2017-08-24T01:16:44.150Z,1006.36
2017-08-24T01:17:44.142Z,1006.37
2017-08-24T01:18:44.130Z,1006.37
2017-08-24T01:19:44.110Z,1006.33
2017-08-24T01:20:44.102Z,1006.38
2017-08-24T01:21:44.085Z,1006.42
2017-08-24T01:22:44.070Z,1006.44
2017-08-24T01:23:44.057Z,1006.44
2017-08-24T01:24:44.050Z,1006.42
2017-08-24T01:25:44.030Z,1006.37
2017-08-24T01:26:44.021Z,1006.41
2017-08-24T01:27:44.011Z,1006.38
2017-08-24T01:28:43.991Z,1006.42
2017-08-24T01:29:43.983Z,1006.42
2017-08-24T01:30:43.962Z,1006.38
2017-08-24T01:31:43.951Z,1006.43
2017-08-24T01:32:43.940Z,1006.47
2017-08-24T01:33:43.921Z,1006.51
2017-08-24T01:34:43.912Z,1006.56
2017-08-24T01:35:43.900Z,1006.57
2017-08-24T01:36:43.882Z,1006.61
2017-08-24T01:37:43.870Z,1006.59
2017-08-24T01:38:43.855Z,1006.57
2017-08-24T01:39:43.840Z,1006.59
2017-08-24T01:40:43.832Z,1006.59
2017-08-24T01:41:43.821Z,1006.59
2017-08-24T01:42:43.805Z,1006.56
2017-08-24T01:43:43.789Z,1006.56
2017-08-24T01:44:43.774Z,1006.61
2017-08-24T01:45:43.760Z,1006.51
2017-08-24T01:46:43.750Z,1006.53
2017-08-24T01:47:43.729Z,1006.51
2017-08-24T01:48:43.720Z,1006.5
2017-08-24T01:49:43.708Z,1006.51
2017-08-24T01:50:43.689Z,1006.55
2017-08-24T01:51:43.701Z,1006.55
2017-08-24T01:52:43.673Z,1006.54
2017-08-24T01:53:43.649Z,1006.51
2017-08-24T01:54:43.633Z,1006.55
2017-08-24T01:55:43.620Z,1006.53
2017-08-24T01:56:43.616Z,1006.61
2017-08-24T01:57:43.595Z,1006.56
2017-08-24T01:58:43.583Z,1006.56
2017-08-24T01:59:43.570Z,1006.53
2017-08-24T02:00:43.554Z,1006.55
2017-08-24T02:01:43.540Z,1006.58
2017-08-24T02:02:43.530Z,1006.59
2017-08-24T02:03:43.518Z,1006.58
2017-08-24T02:04:43.500Z,1006.59
2017-08-24T02:05:43.485Z,1006.6
2017-08-24T02:06:43.481Z,1006.63
2017-08-24T02:07:43.463Z,1006.64
2017-08-24T02:08:43.451Z,1006.64
2017-08-24T02:09:43.443Z,1006.63
2017-08-24T02:10:43.432Z,1006.63
2017-08-24T02:11:43.410Z,1006.66
2017-08-24T02:12:43.401Z,1006.65
2017-08-24T02:13:43.379Z,1006.67
2017-08-24T02:14:43.372Z,1006.7
2017-08-24T02:15:43.351Z,1006.72
2017-08-24T02:16:43.340Z,1006.75
2017-08-24T02:17:43.332Z,1006.75
2017-08-24T02:18:43.312Z,1006.74
2017-08-24T02:19:43.302Z,1006.82
2017-08-24T02:20:43.288Z,1006.76
2017-08-24T02:21:43.269Z,1006.73
2017-08-24T02:22:43.266Z,1006.75
2017-08-24T02:23:43.251Z,1006.74
2017-08-24T02:24:43.232Z,1006.73
2017-08-24T02:25:43.228Z,1006.71
2017-08-24T02:26:43.206Z,1006.75
2017-08-24T02:27:43.192Z,1006.76
2017-08-24T02:28:43.181Z,1006.75
2017-08-24T02:29:43.162Z,1006.72
2017-08-24T02:30:43.152Z,1006.81
2017-08-24T02:31:43.146Z,1006.75
2017-08-24T02:32:43.121Z,1006.8
2017-08-24T02:33:43.114Z,1006.8
2017-08-24T02:34:43.098Z,1006.8
2017-08-24T02:35:43.082Z,1006.77
2017-08-24T02:36:43.074Z,1006.77
2017-08-24T02:37:43.056Z,1006.76
2017-08-24T02:38:43.050Z,1006.75
2017-08-24T02:39:43.039Z,1006.75
2017-08-24T02:40:43.020Z,1006.83
2017-08-24T02:41:43.000Z,1006.77
2017-08-24T02:42:43.083Z,1006.78
2017-08-24T02:43:42.968Z,1006.75
2017-08-24T02:44:42.960Z,1006.81
2017-08-24T02:45:42.952Z,1006.81
2017-08-24T02:46:42.936Z,1006.78
2017-08-24T02:47:42.921Z,1006.8
2017-08-24T02:48:43.011Z,1006.84
2017-08-24T02:49:42.891Z,1006.84
2017-08-24T02:50:42.880Z,1006.84
2017-08-24T02:51:42.866Z,1006.81
2017-08-24T02:52:42.853Z,1006.75
2017-08-24T02:53:42.835Z,1006.87
2017-08-24T02:54:42.825Z,1006.82
2017-08-24T02:55:42.811Z,1006.87
2017-08-24T02:56:42.803Z,1006.83
2017-08-24T02:57:42.796Z,1006.84
2017-08-24T02:58:42.771Z,1006.84
2017-08-24T02:59:42.761Z,1006.86
2017-08-24T03:00:42.741Z,1006.88
2017-08-24T03:01:42.729Z,1006.93
2017-08-24T03:02:42.719Z,1006.91
2017-08-24T03:03:42.712Z,1006.9
2017-08-24T03:04:42.691Z,1006.91
2017-08-24T03:05:42.680Z,1006.88
2017-08-24T03:06:42.661Z,1006.86
2017-08-24T03:07:42.648Z,1006.88
2017-08-24T03:08:42.641Z,1006.87
2017-08-24T03:09:42.620Z,1006.9
2017-08-24T03:10:42.613Z,1006.85
2017-08-24T03:11:42.602Z,1006.86
2017-08-24T03:12:42.581Z,1006.89
2017-08-24T03:13:42.570Z,1006.91
2017-08-24T03:14:42.552Z,1006.87
2017-08-24T03:15:42.543Z,1006.92
2017-08-24T03:16:42.523Z,1006.86
2017-08-24T03:17:42.512Z,1006.91
2017-08-24T03:18:42.502Z,1006.87
2017-08-24T03:19:42.490Z,1006.91
2017-08-24T03:20:42.469Z,1006.87
2017-08-24T03:21:42.460Z,1006.85
2017-08-24T03:22:42.442Z,1006.87
2017-08-24T03:23:42.430Z,1006.87
2017-08-24T03:24:42.421Z,1006.87
2017-08-24T03:25:42.399Z,1006.87
2017-08-24T03:26:42.391Z,1006.92
2017-08-24T03:27:42.371Z,1006.95
2017-08-24T03:28:42.359Z,1006.99
2017-08-24T03:29:42.349Z,1006.98
2017-08-24T03:30:42.334Z,1007
2017-08-24T03:31:42.322Z,1007
2017-08-24T03:32:42.310Z,1006.98
2017-08-24T03:33:42.290Z,1006.94
2017-08-24T03:34:42.281Z,1006.99
2017-08-24T03:35:42.271Z,1006.99
2017-08-24T03:36:42.249Z,1006.96
2017-08-24T03:37:42.242Z,1007.02
2017-08-24T03:38:42.220Z,1007.04
2017-08-24T03:39:42.211Z,1007.09
2017-08-24T03:40:42.192Z,1007.04
2017-08-24T03:41:42.179Z,1007.12
2017-08-24T03:42:42.173Z,1007.1
2017-08-24T03:43:42.153Z,1007.26
2017-08-24T03:44:42.139Z,1007.11
2017-08-24T03:45:42.130Z,1007.13
2017-08-24T03:46:42.111Z,1007.18
2017-08-24T03:47:42.103Z,1007.2
2017-08-24T03:48:42.085Z,1007.22
2017-08-24T03:49:42.073Z,1007.18
2017-08-24T03:50:42.055Z,1007.21
2017-08-24T03:51:42.050Z,1007.2
2017-08-24T03:52:42.030Z,1007.24
2017-08-24T03:53:42.015Z,1007.23
2017-08-24T03:54:42.001Z,1007.2
2017-08-24T03:55:41.992Z,1007.22
2017-08-24T03:56:41.974Z,1007.24
2017-08-24T03:57:41.961Z,1007.27
2017-08-24T03:58:41.951Z,1007.24
2017-08-24T03:59:41.931Z,1007.25
2017-08-24T04:00:41.922Z,1007.22
2017-08-24T04:01:41.905Z,1007.23
2017-08-24T04:02:41.890Z,1007.22
2017-08-24T04:03:41.944Z,1007.23
2017-08-24T04:04:41.865Z,1007.26
2017-08-24T04:05:41.850Z,1007.23
2017-08-24T04:06:41.832Z,1007.23
2017-08-24T04:07:41.883Z,1007.24
2017-08-24T04:08:41.812Z,1007.3
2017-08-24T04:09:41.794Z,1007.28
2017-08-24T04:10:41.780Z,1007.31
2017-08-24T04:11:41.772Z,1007.35
2017-08-24T04:12:41.752Z,1007.3
2017-08-24T04:13:41.743Z,1007.36
2017-08-24T04:14:41.724Z,1007.33
2017-08-24T04:15:41.811Z,1007.35
2017-08-24T04:16:41.703Z,1007.37
2017-08-24T04:17:41.685Z,1007.37
2017-08-24T04:18:41.667Z,1007.39
2017-08-24T04:19:41.655Z,1007.38
2017-08-24T04:20:41.649Z,1007.41
2017-08-24T04:21:41.631Z,1007.41
2017-08-24T04:22:41.616Z,1007.42
2017-08-24T04:23:41.600Z,1007.44
2017-08-24T04:24:41.586Z,1007.39
2017-08-24T04:25:41.582Z,1007.37
2017-08-24T04:26:41.560Z,1007.43
2017-08-24T04:27:41.593Z,1007.39
2017-08-24T04:28:41.530Z,1007.4
2017-08-24T04:29:41.521Z,1007.45
2017-08-24T04:30:41.503Z,1007.46
2017-08-24T04:31:41.488Z,1007.42
2017-08-24T04:32:41.472Z,1007.49
2017-08-24T04:33:41.509Z,1007.48
2017-08-24T04:34:41.450Z,1007.51
2017-08-24T04:35:41.431Z,1007.53
2017-08-24T04:36:41.421Z,1007.5
2017-08-24T04:37:41.413Z,1007.49
2017-08-24T04:38:41.389Z,1007.53
2017-08-24T04:39:41.389Z,1007.54
2017-08-24T04:40:41.367Z,1007.6
2017-08-24T04:41:41.351Z,1007.61
2017-08-24T04:42:41.335Z,1007.58
2017-08-24T04:43:41.323Z,1007.6
2017-08-24T04:44:41.310Z,1007.61
2017-08-24T04:45:41.292Z,1007.64
2017-08-24T04:46:41.280Z,1007.62
2017-08-24T04:47:41.262Z,1007.64
2017-08-24T04:48:41.252Z,1007.63
2017-08-24T04:49:41.240Z,1007.69
2017-08-24T04:50:41.225Z,1007.67
2017-08-24T04:51:41.211Z,1007.71
2017-08-24T04:52:41.195Z,1007.71
2017-08-24T04:53:41.183Z,1007.7
2017-08-24T04:54:41.169Z,1007.74
2017-08-24T04:55:41.154Z,1007.7
2017-08-24T04:56:41.138Z,1007.73
2017-08-24T04:57:41.128Z,1007.74
2017-08-24T04:58:41.111Z,1007.76
2017-08-24T04:59:41.106Z,1007.74
2017-08-24T05:00:41.085Z,1007.75
2017-08-24T05:01:41.069Z,1007.78
2017-08-24T05:02:41.060Z,1007.79
2017-08-24T05:03:41.040Z,1007.8
2017-08-24T05:04:41.034Z,1007.75
2017-08-24T05:05:41.015Z,1007.7
2017-08-24T05:06:40.996Z,1007.73
2017-08-24T05:07:40.991Z,1007.77
2017-08-24T05:08:40.972Z,1007.74
2017-08-24T05:09:40.961Z,1007.74
2017-08-24T05:10:40.943Z,1007.76
2017-08-24T05:11:40.932Z,1007.73
2017-08-24T05:12:40.921Z,1007.73
2017-08-24T05:13:40.905Z,1007.75
2017-08-24T05:14:40.889Z,1007.78
2017-08-24T05:15:40.872Z,1007.8
2017-08-24T05:16:40.863Z,1007.79
2017-08-24T05:17:40.850Z,1007.83
2017-08-24T05:18:40.835Z,1007.83
2017-08-24T05:19:40.819Z,1007.84
2017-08-24T05:20:40.803Z,1007.84
2017-08-24T05:21:40.793Z,1007.84
2017-08-24T05:22:40.781Z,1007.88
2017-08-24T05:23:40.771Z,1007.89
2017-08-24T05:24:40.756Z,1007.88
2017-08-24T05:25:40.736Z,1007.89
2017-08-24T05:26:40.721Z,1007.89
2017-08-24T05:27:40.710Z,1007.87
2017-08-24T05:28:40.699Z,1007.87
2017-08-24T05:29:40.678Z,1007.93
2017-08-24T05:30:40.670Z,1007.88
2017-08-24T05:31:40.652Z,1007.96
2017-08-24T05:32:40.638Z,1007.92
2017-08-24T05:33:40.624Z,1007.97
2017-08-24T05:34:40.612Z,1007.95
2017-08-24T05:35:40.599Z,1007.98
2017-08-24T05:36:40.590Z,1007.98
2017-08-24T05:37:40.565Z,1008.04
2017-08-24T05:38:40.552Z,1008.01
2017-08-24T05:39:40.536Z,1008
2017-08-24T05:40:40.530Z,1008.01
2017-08-24T05:41:40.510Z,1008.05
2017-08-24T05:42:40.516Z,1008.04
2017-08-24T05:43:40.481Z,1008.05
2017-08-24T05:44:40.469Z,1008.08
2017-08-24T05:45:40.459Z,1008.1
2017-08-24T05:46:40.440Z,1008.15
2017-08-24T05:47:40.429Z,1008.06
2017-08-24T05:48:40.412Z,1008.09
2017-08-24T05:49:40.401Z,1008.08
2017-08-24T05:50:40.388Z,1008.13
2017-08-24T05:51:40.370Z,1008.12
2017-08-24T05:52:40.357Z,1008.14
2017-08-24T05:53:40.340Z,1008.24
2017-08-24T05:54:40.331Z,1008.2
2017-08-24T05:55:40.320Z,1008.22
2017-08-24T05:56:40.301Z,1008.21
2017-08-24T05:57:40.287Z,1008.2
2017-08-24T05:58:40.272Z,1008.22
2017-08-24T05:59:40.262Z,1008.28
2017-08-24T06:00:40.248Z,1008.29
2017-08-24T06:01:40.231Z,1008.34
2017-08-24T06:02:40.222Z,1008.32
2017-08-24T06:03:40.202Z,1008.37
2017-08-24T06:04:40.191Z,1008.37
2017-08-24T06:05:40.180Z,1008.38
2017-08-24T06:06:40.163Z,1008.4
2017-08-24T06:07:40.148Z,1008.41
2017-08-24T06:08:40.136Z,1008.35
2017-08-24T06:09:40.119Z,1008.32
2017-08-24T06:10:40.105Z,1008.35
2017-08-24T06:11:40.101Z,1008.36
2017-08-24T06:12:40.080Z,1008.41
2017-08-24T06:13:40.071Z,1008.38
2017-08-24T06:14:40.050Z,1008.43
2017-08-24T06:15:40.040Z,1008.38
2017-08-24T06:16:40.026Z,1008.49
2017-08-24T06:17:40.012Z,1008.46
2017-08-24T06:18:40.003Z,1008.45
2017-08-24T06:19:39.982Z,1008.42
2017-08-24T06:20:39.968Z,1008.41
2017-08-24T06:21:39.960Z,1008.4
2017-08-24T06:22:39.941Z,1008.43
2017-08-24T06:23:39.928Z,1008.41
2017-08-24T06:24:39.915Z,1008.41
2017-08-24T06:25:39.899Z,1008.47
2017-08-24T06:26:39.883Z,1008.52
2017-08-24T06:27:39.870Z,1008.5
2017-08-24T06:28:39.854Z,1008.41
2017-08-24T06:29:39.840Z,1008.47
2017-08-24T06:30:39.831Z,1008.49
2017-08-24T06:31:39.810Z,1008.46
2017-08-24T06:32:39.801Z,1008.53
2017-08-24T06:33:39.791Z,1008.58
2017-08-24T06:34:39.770Z,1008.55
2017-08-24T06:35:39.760Z,1008.5
2017-08-24T06:36:39.746Z,1008.49
2017-08-24T06:37:39.741Z,1008.49
2017-08-24T06:38:39.713Z,1008.47
2017-08-24T06:39:39.700Z,1008.52
2017-08-24T06:40:39.690Z,1008.51
2017-08-24T06:41:39.671Z,1008.51
2017-08-24T06:42:39.661Z,1008.51
2017-08-24T06:43:39.648Z,1008.49
2017-08-24T06:44:39.631Z,1008.53
2017-08-24T06:45:39.614Z,1008.5
2017-08-24T06:46:39.600Z,1008.5
2017-08-24T06:47:39.588Z,1008.52
2017-08-24T06:48:39.574Z,1008.51
2017-08-24T06:49:39.559Z,1008.48
2017-08-24T06:50:39.551Z,1008.5
2017-08-24T06:51:39.533Z,1008.54
2017-08-24T06:52:39.519Z,1008.46
2017-08-24T06:53:39.513Z,1008.48
2017-08-24T06:54:39.490Z,1008.47
2017-08-24T06:55:39.475Z,1008.48
2017-08-24T06:56:39.461Z,1008.49
2017-08-24T06:57:39.448Z,1008.45
2017-08-24T06:58:39.441Z,1008.47
2017-08-24T06:59:39.418Z,1008.53
2017-08-24T07:00:39.404Z,1008.51
2017-08-24T07:01:39.391Z,1008.52
2017-08-24T07:02:39.381Z,1008.48
2017-08-24T07:03:39.360Z,1008.51
2017-08-24T07:04:39.347Z,1008.58
2017-08-24T07:05:39.338Z,1008.59
2017-08-24T07:06:39.322Z,1008.64
2017-08-24T07:07:39.311Z,1008.62
2017-08-24T07:08:39.300Z,1008.66
2017-08-24T07:09:39.283Z,1008.69
2017-08-24T07:10:39.261Z,1008.71
2017-08-24T07:11:39.261Z,1008.71
2017-08-24T07:12:39.240Z,1008.72
2017-08-24T07:13:39.221Z,1008.77
2017-08-24T07:14:39.212Z,1008.78
2017-08-24T07:15:39.200Z,1008.74
2017-08-24T07:16:39.176Z,1008.76
2017-08-24T07:17:39.167Z,1008.81
2017-08-24T07:18:39.150Z,1008.79
2017-08-24T07:19:39.135Z,1008.84
2017-08-24T07:20:39.120Z,1008.82
2017-08-24T07:21:39.103Z,1008.87
2017-08-24T07:22:39.091Z,1008.9
2017-08-24T07:23:39.081Z,1008.93
2017-08-24T07:24:39.072Z,1008.96
2017-08-24T07:25:39.050Z,1008.98
2017-08-24T07:26:39.042Z,1009
2017-08-24T07:27:39.030Z,1009.03
2017-08-24T07:28:39.008Z,1008.98
2017-08-24T07:29:39.000Z,1008.97
2017-08-24T07:30:38.981Z,1008.98
2017-08-24T07:31:38.971Z,1009
2017-08-24T07:32:38.952Z,1009.05
2017-08-24T07:33:38.937Z,1009.06
2017-08-24T07:34:38.928Z,1009.13
2017-08-24T07:35:38.911Z,1009.09
2017-08-24T07:36:38.901Z,1009.11
2017-08-24T07:37:38.884Z,1009.09
2017-08-24T07:38:38.870Z,1009.09
2017-08-24T07:39:38.853Z,1009.07
2017-08-24T07:40:38.837Z,1009
2017-08-24T07:41:38.831Z,1008.98
2017-08-24T07:42:38.812Z,1009
2017-08-24T07:43:38.803Z,1009.02
2017-08-24T07:44:38.791Z,1009
2017-08-24T07:45:38.770Z,1008.95
2017-08-24T07:46:38.759Z,1008.98
2017-08-24T07:47:38.750Z,1009.02
2017-08-24T07:48:38.728Z,1009.04
2017-08-24T07:49:38.721Z,1008.99
2017-08-24T07:50:38.700Z,1009.04
2017-08-24T07:51:38.690Z,1009.08
2017-08-24T07:52:38.680Z,1009.1
2017-08-24T07:53:38.662Z,1009.08
2017-08-24T07:54:38.648Z,1009.1
2017-08-24T07:55:38.630Z,1009.11
2017-08-24T07:56:38.618Z,1009.13
2017-08-24T07:57:38.622Z,1009.16
2017-08-24T07:58:38.591Z,1009.15
2017-08-24T07:59:38.581Z,1009.16
2017-08-24T08:00:38.563Z,1009.1
2017-08-24T08:01:38.551Z,1009.12
2017-08-24T08:02:38.539Z,1009.16
2017-08-24T08:03:38.521Z,1009.14
2017-08-24T08:04:38.511Z,1009.16
2017-08-24T08:05:38.505Z,1009.2
2017-08-24T08:06:38.479Z,1009.18
2017-08-24T08:07:38.471Z,1009.24
2017-08-24T08:08:38.449Z,1009.29
2017-08-24T08:09:38.441Z,1009.28
2017-08-24T08:10:38.430Z,1009.24
2017-08-24T08:11:38.422Z,1009.2
2017-08-24T08:12:38.407Z,1009.19
2017-08-24T08:13:38.385Z,1009.24
2017-08-24T08:14:38.388Z,1009.2
2017-08-24T08:15:38.362Z,1009.27
2017-08-24T08:16:38.345Z,1009.3
2017-08-24T08:17:38.334Z,1009.24
2017-08-24T08:18:38.323Z,1009.28
2017-08-24T08:19:38.313Z,1009.25
2017-08-24T08:20:38.291Z,1009.28
2017-08-24T08:21:38.278Z,1009.23
2017-08-24T08:22:38.268Z,1009.3
2017-08-24T08:23:38.249Z,1009.3
2017-08-24T08:24:38.242Z,1009.28
2017-08-24T08:25:38.228Z,1009.29
2017-08-24T08:26:38.211Z,1009.38
2017-08-24T08:27:38.198Z,1009.37
2017-08-24T08:28:38.187Z,1009.32
2017-08-24T08:29:38.171Z,1009.38
2017-08-24T08:30:38.160Z,1009.41
2017-08-24T08:31:38.152Z,1009.35
2017-08-24T08:32:38.134Z,1009.38
2017-08-24T08:33:38.120Z,1009.37
2017-08-24T08:34:38.244Z,1009.44
2017-08-24T08:35:38.092Z,1009.42
2017-08-24T08:36:38.089Z,1009.39
2017-08-24T08:37:38.073Z,1009.41
2017-08-24T08:38:38.110Z,1009.42
2017-08-24T08:39:38.042Z,1009.4
2017-08-24T08:40:38.032Z,1009.37
2017-08-24T08:41:38.018Z,1009.38
2017-08-24T08:42:38.012Z,1009.39
2017-08-24T08:43:37.990Z,1009.42
2017-08-24T08:44:37.995Z,1009.46
2017-08-24T08:45:37.975Z,1009.42
2017-08-24T08:46:38.006Z,1009.42
2017-08-24T08:47:37.941Z,1009.38
2017-08-24T08:48:38.038Z,1009.36
2017-08-24T08:49:37.920Z,1009.4
2017-08-24T08:50:37.911Z,1009.41
2017-08-24T08:51:37.901Z,1009.52
2017-08-24T08:52:37.896Z,1009.43
2017-08-24T08:53:37.881Z,1009.44
2017-08-24T08:54:37.870Z,1009.42
2017-08-24T08:55:37.853Z,1009.45
2017-08-24T08:56:37.851Z,1009.53
2017-08-24T08:57:37.839Z,1009.52
2017-08-24T08:58:37.822Z,1009.51
2017-08-24T08:59:37.812Z,1009.55
2017-08-24T09:00:38.029Z,1009.56
2017-08-24T09:01:37.793Z,1009.57
2017-08-24T09:02:37.775Z,1009.58
2017-08-24T09:03:37.769Z,1009.52
2017-08-24T09:04:37.754Z,1009.51
2017-08-24T09:05:37.745Z,1009.57
2017-08-24T09:06:37.733Z,1009.55
2017-08-24T09:07:37.720Z,1009.64
2017-08-24T09:08:37.710Z,1009.67
2017-08-24T09:09:37.703Z,1009.66
2017-08-24T09:10:37.691Z,1009.61
2017-08-24T09:11:37.681Z,1009.57
2017-08-24T09:12:37.665Z,1009.55
2017-08-24T09:13:37.660Z,1009.57
2017-08-24T09:14:37.650Z,1009.58
2017-08-24T09:15:37.635Z,1009.55
2017-08-24T09:16:37.630Z,1009.59
2017-08-24T09:17:37.623Z,1009.67
2017-08-24T09:18:37.603Z,1009.65
2017-08-24T09:19:37.594Z,1009.63
2017-08-24T09:20:37.582Z,1009.64
2017-08-24T09:21:37.582Z,1009.63
2017-08-24T09:22:37.565Z,1009.64
2017-08-24T09:23:37.559Z,1009.76
2017-08-24T09:24:37.547Z,1009.67
2017-08-24T09:25:37.541Z,1009.68
2017-08-24T09:26:37.529Z,1009.72
2017-08-24T09:27:37.531Z,1009.72
2017-08-24T09:28:37.519Z,1009.69
2017-08-24T09:29:37.509Z,1009.7
2017-08-24T09:30:37.500Z,1009.68
2017-08-24T09:31:37.485Z,1009.68
2017-08-24T09:32:37.480Z,1009.72
2017-08-24T09:33:37.475Z,1009.67
2017-08-24T09:34:37.460Z,1009.72
2017-08-24T09:35:37.455Z,1009.72
2017-08-24T09:36:37.447Z,1009.79
2017-08-24T09:37:37.442Z,1009.65
2017-08-24T09:38:37.429Z,1009.66
2017-08-24T09:39:37.422Z,1009.7
2017-08-24T09:40:37.410Z,1009.71
2017-08-24T09:41:37.400Z,1009.7
2017-08-24T09:42:37.400Z,1009.73
2017-08-24T09:43:37.383Z,1009.71
2017-08-24T09:44:37.375Z,1009.75
2017-08-24T09:45:37.377Z,1009.79
2017-08-24T09:46:37.358Z,1009.78
2017-08-24T09:47:37.350Z,1009.8
2017-08-24T09:48:37.350Z,1009.78
2017-08-24T09:49:37.340Z,1009.74
2017-08-24T09:50:37.326Z,1009.76
2017-08-24T09:51:37.321Z,1009.71
2017-08-24T09:52:37.353Z,1009.82
2017-08-24T09:53:37.301Z,1009.8
2017-08-24T09:54:37.297Z,1009.8
2017-08-24T09:55:37.288Z,1009.81
2017-08-24T09:56:37.283Z,1009.84
2017-08-24T09:57:37.271Z,1009.83
2017-08-24T09:58:37.264Z,1009.83
2017-08-24T09:59:37.260Z,1009.8
2017-08-24T10:00:37.266Z,1009.82
2017-08-24T10:01:37.238Z,1009.76
2017-08-24T10:02:37.233Z,1009.87
2017-08-24T10:03:37.230Z,1009.79
2017-08-24T10:04:37.219Z,1009.83
2017-08-24T10:05:37.211Z,1009.85
2017-08-24T10:06:37.201Z,1009.91
2017-08-24T10:07:37.195Z,1009.96
2017-08-24T10:08:37.191Z,1009.85
2017-08-24T10:09:37.177Z,1009.79
2017-08-24T10:10:37.174Z,1009.85
2017-08-24T10:11:37.166Z,1009.82
2017-08-24T10:12:37.161Z,1009.84
2017-08-24T10:13:37.150Z,1009.85
2017-08-24T10:14:37.143Z,1009.86
2017-08-24T10:15:37.131Z,1009.86
2017-08-24T10:16:37.128Z,1009.87
2017-08-24T10:17:37.123Z,1009.84
2017-08-24T10:18:37.110Z,1009.91
2017-08-24T10:19:37.102Z,1009.9
2017-08-24T10:20:37.091Z,1009.87
2017-08-24T10:21:37.083Z,1009.85
2017-08-24T10:22:37.081Z,1009.86
2017-08-24T10:23:37.068Z,1009.86
2017-08-24T10:24:37.054Z,1009.84
2017-08-24T10:25:37.048Z,1009.8
2017-08-24T10:26:37.036Z,1009.74
2017-08-24T10:27:37.030Z,1009.79
2017-08-24T10:28:37.021Z,1009.85
2017-08-24T10:29:37.045Z,1009.8
2017-08-24T10:30:37.001Z,1009.87
2017-08-24T10:31:37.043Z,1009.76
2017-08-24T10:32:36.989Z,1009.75
2017-08-24T10:33:36.971Z,1009.82
2017-08-24T10:34:36.961Z,1009.75
2017-08-24T10:35:36.951Z,1009.79
2017-08-24T10:36:36.941Z,1009.82
2017-08-24T10:37:36.932Z,1009.83
2017-08-24T10:38:36.923Z,1009.82
2017-08-24T10:39:36.910Z,1009.85
2017-08-24T10:40:36.903Z,1009.87
2017-08-24T10:41:36.895Z,1009.89
2017-08-24T10:42:36.880Z,1009.87
2017-08-24T10:43:36.870Z,1009.92
2017-08-24T10:44:36.860Z,1009.91
2017-08-24T10:45:36.854Z,1009.93
2017-08-24T10:46:36.839Z,1009.93
2017-08-24T10:47:36.830Z,1009.91
2017-08-24T10:48:36.820Z,1009.94
2017-08-24T10:49:36.812Z,1009.93
2017-08-24T10:50:36.802Z,1009.9
2017-08-24T10:51:36.792Z,1009.91
2017-08-24T10:52:36.781Z,1009.91
2017-08-24T10:53:36.769Z,1009.92
2017-08-24T10:54:36.758Z,1009.9
2017-08-24T10:55:36.750Z,1009.89
2017-08-24T10:56:36.735Z,1009.92
2017-08-24T10:57:36.727Z,1009.94
2017-08-24T10:58:36.723Z,1009.91
2017-08-24T10:59:36.708Z,1009.99
2017-08-24T11:00:36.695Z,1009.95
2017-08-24T11:01:36.685Z,1009.94
2017-08-24T11:02:36.676Z,1009.89
2017-08-24T11:03:36.669Z,1010
2017-08-24T11:04:36.651Z,1009.96
2017-08-24T11:05:36.645Z,1010
2017-08-24T11:06:36.633Z,1009.93
2017-08-24T11:07:36.621Z,1009.94
2017-08-24T11:08:36.611Z,1010.01
2017-08-24T11:09:36.602Z,1009.93
2017-08-24T11:10:36.590Z,1009.95
2017-08-24T11:11:36.582Z,1009.96
2017-08-24T11:12:36.570Z,1009.96
2017-08-24T11:13:36.568Z,1009.91
2017-08-24T11:14:36.550Z,1009.91
2017-08-24T11:15:36.604Z,1009.93
2017-08-24T11:16:36.529Z,1009.88
2017-08-24T11:17:36.547Z,1009.89
2017-08-24T11:18:36.509Z,1009.91
2017-08-24T11:19:36.518Z,1009.92
2017-08-24T11:20:36.493Z,1009.9
2017-08-24T11:21:36.533Z,1009.94
2017-08-24T11:22:36.470Z,1009.92
2017-08-24T11:23:36.513Z,1009.96
2017-08-24T11:24:36.451Z,1009.98
2017-08-24T11:25:36.443Z,1009.99
2017-08-24T11:26:36.431Z,1009.96
2017-08-24T11:27:36.424Z,1010.02
2017-08-24T11:28:36.415Z,1010.07
2017-08-24T11:29:36.407Z,1010.01
2017-08-24T11:30:36.398Z,1009.96
2017-08-24T11:31:36.394Z,1010.08
2017-08-24T11:32:36.378Z,1010.07
2017-08-24T11:33:36.361Z,1009.99
2017-08-24T11:34:36.351Z,1010.03
2017-08-24T11:35:36.342Z,1009.97
2017-08-24T11:36:36.335Z,1010.01
2017-08-24T11:37:36.330Z,1009.99
2017-08-24T11:38:36.312Z,1009.94
2017-08-24T11:39:36.304Z,1010
2017-08-24T11:40:36.299Z,1009.95
2017-08-24T11:41:36.293Z,1009.97
2017-08-24T11:42:36.280Z,1009.95
2017-08-24T11:43:36.266Z,1009.94
2017-08-24T11:44:36.261Z,1010.04
2017-08-24T11:45:36.250Z,1010.01
2017-08-24T11:46:36.274Z,1010.02
2017-08-24T11:47:36.226Z,1009.96
2017-08-24T11:48:36.218Z,1010.01
2017-08-24T11:49:36.212Z,1009.94
2017-08-24T11:50:36.200Z,1009.98
2017-08-24T11:51:36.193Z,1009.94
2017-08-24T11:52:36.181Z,1009.91
2017-08-24T11:53:36.170Z,1009.91
2017-08-24T11:54:36.163Z,1009.98
2017-08-24T11:55:36.162Z,1009.94
2017-08-24T11:56:36.143Z,1009.94
2017-08-24T11:57:36.138Z,1009.99
2017-08-24T11:58:36.129Z,1009.96
2017-08-24T11:59:36.120Z,1009.98
2017-08-24T12:00:36.112Z,1009.99
2017-08-24T12:01:36.112Z,1009.98
2017-08-24T12:02:36.104Z,1009.98
2017-08-24T12:03:36.089Z,1009.94
2017-08-24T12:04:36.075Z,1009.93
2017-08-24T12:05:36.064Z,1009.94
2017-08-24T12:06:36.059Z,1009.92
2017-08-24T12:07:36.073Z,1009.95
2017-08-24T12:08:36.050Z,1009.93